Time;durP1;ratioP1;P1;durP2;ratioP2;P2;SDS_P1;SDS_P2;PMS_P1;PMS_P2;Temp;Humidity;BMP_temperature;BMP_pressure;BME280_temperature;BME280_humidity;BME280_pressure;Samples;Min_cycle;Max_cycle;Signal;HPM_P1;HPM_P2
2023/04/20 00:01:22;;;;;;;8.10;3.30;;;;;;;;;;5029724;28;20084;-71
2023/04/20 00:03:48;;;;;;;7.97;3.13;;;;;;;;;;5033987;28;20367;-71
2023/04/20 00:06:14;;;;;;;9.27;2.73;;;;;;;;;;5030316;28;20056;-71
2023/04/20 00:08:39;;;;;;;5.53;3.00;;;;;;;;;;5032965;28;20279;-71
2023/04/20 00:11:05;;;;;;;10.45;3.20;;;;;;;;;;5028965;28;20029;-72
2023/04/20 00:13:30;;;;;;;11.20;3.33;;;;;;;;;;5029616;28;20021;-71
2023/04/20 00:15:55;;;;;;;8.35;3.22;;;;;;;;;;5029661;28;20284;-73
2023/04/20 00:18:20;;;;;;;5.38;3.17;;;;;;;;;;5024178;28;20100;-71
2023/04/20 00:20:45;;;;;;;12.63;3.63;;;;;;;;;;5027670;28;20048;-71
2023/04/20 00:23:11;;;;;;;7.93;3.00;;;;;;;;;;5037543;28;20857;-71
2023/04/20 00:25:36;;;;;;;4.50;2.70;;;;;;;;;;5029554;28;20264;-71
2023/04/20 00:28:01;;;;;;;15.00;3.33;;;;;;;;;;5031092;28;20648;-71
2023/04/20 00:30:26;;;;;;;6.90;3.35;;;;;;;;;;5030671;28;20052;-71
2023/04/20 00:32:51;;;;;;;7.53;3.17;;;;;;;;;;5030630;28;20033;-71
2023/04/20 00:35:17;;;;;;;10.02;4.00;;;;;;;;;;5032757;28;20266;-71
2023/04/20 00:37:42;;;;;;;11.70;3.47;;;;;;;;;;5030483;28;20017;-72
2023/04/20 00:40:08;;;;;;;6.68;2.75;;;;;;;;;;5030409;28;20047;-71
2023/04/20 00:42:33;;;;;;;10.15;2.70;;;;;;;;;;5029433;28;20474;-72
2023/04/20 00:44:58;;;;;;;8.95;3.47;;;;;;;;;;5029640;28;20025;-71
2023/04/20 00:47:23;;;;;;;6.73;2.80;;;;;;;;;;5028619;28;20067;-71
2023/04/20 00:49:49;;;;;;;8.07;3.38;;;;;;;;;;5027251;28;20636;-71
2023/04/20 00:52:14;;;;;;;4.32;2.80;;;;;;;;;;5028002;28;20490;-71
2023/04/20 00:54:40;;;;;;;8.45;3.30;;;;;;;;;;5028795;28;20032;-71
2023/04/20 00:57:05;;;;;;;10.30;3.55;;;;;;;;;;5029207;28;20511;-71
2023/04/20 00:59:30;;;;;;;10.10;3.72;;;;;;;;;;5021447;28;20429;-71
2023/04/20 01:01:56;;;;;;;7.57;3.50;;;;;;;;;;5027008;28;20029;-71
2023/04/20 01:04:21;;;;;;;6.78;3.13;;;;;;;;;;5027460;28;20024;-71
2023/04/20 01:06:46;;;;;;;9.13;3.58;;;;;;;;;;5027617;28;20455;-72
2023/04/20 01:09:11;;;;;;;8.17;3.63;;;;;;;;;;5026886;28;20025;-71
2023/04/20 01:11:37;;;;;;;6.27;2.70;;;;;;;;;;5027836;28;20753;-73
2023/04/20 01:14:02;;;;;;;9.98;3.42;;;;;;;;;;5022724;28;20280;-72
2023/04/20 01:16:27;;;;;;;10.90;3.67;;;;;;;;;;5027804;28;20033;-72
2023/04/20 01:18:52;;;;;;;5.50;3.00;;;;;;;;;;5026048;28;20300;-73
2023/04/20 01:21:18;;;;;;;5.43;3.10;;;;;;;;;;5029814;28;20276;-72
2023/04/20 01:23:44;;;;;;;7.93;3.78;;;;;;;;;;5029835;28;20288;-72
2023/04/20 01:26:11;;;;;;;5.70;2.90;;;;;;;;;;5034391;28;20040;-72
2023/04/20 01:28:36;;;;;;;6.25;3.22;;;;;;;;;;5030426;28;20095;-72
2023/04/20 01:31:02;;;;;;;7.72;3.92;;;;;;;;;;5031930;28;20702;-73
2023/04/20 01:33:28;;;;;;;10.25;3.65;;;;;;;;;;5033413;28;20036;-73
2023/04/20 01:35:53;;;;;;;12.80;3.63;;;;;;;;;;5032246;28;20078;-72
2023/04/20 01:38:19;;;;;;;7.10;3.57;;;;;;;;;;5035287;28;20036;-72
2023/04/20 01:40:44;;;;;;;7.03;3.72;;;;;;;;;;5038192;28;20276;-73
2023/04/20 01:43:09;;;;;;;11.30;3.60;;;;;;;;;;5033236;28;20025;-72
2023/04/20 01:45:35;;;;;;;9.60;3.75;;;;;;;;;;5034148;28;20026;-73
2023/04/20 01:48:00;;;;;;;8.02;3.63;;;;;;;;;;5032396;28;20013;-72
2023/04/20 01:50:25;;;;;;;16.00;3.97;;;;;;;;;;5033537;28;20467;-72
2023/04/20 01:52:51;;;;;;;8.85;3.55;;;;;;;;;;5033556;28;20021;-72
2023/04/20 01:55:16;;;;;;;5.88;3.38;;;;;;;;;;5034588;28;20029;-73
2023/04/20 01:57:43;;;;;;;10.13;4.55;;;;;;;;;;5034178;28;20025;-73
2023/04/20 02:00:08;;;;;;;11.98;4.10;;;;;;;;;;5031284;28;20370;-73
2023/04/20 02:02:34;;;;;;;10.55;3.92;;;;;;;;;;5033521;28;20022;-73
2023/04/20 02:04:59;;;;;;;5.95;3.17;;;;;;;;;;5033649;28;20050;-72
2023/04/20 02:07:24;;;;;;;10.40;3.50;;;;;;;;;;5033638;28;20028;-73
2023/04/20 02:09:49;;;;;;;5.97;3.85;;;;;;;;;;5031061;28;20602;-73
2023/04/20 02:12:14;;;;;;;9.85;3.63;;;;;;;;;;5035377;28;20026;-73
2023/04/20 02:14:40;;;;;;;10.23;4.03;;;;;;;;;;5031723;28;20053;-73
2023/04/20 02:17:06;;;;;;;7.70;3.83;;;;;;;;;;5033264;28;20395;-72
2023/04/20 02:19:31;;;;;;;11.90;4.07;;;;;;;;;;5034708;28;20046;-73
2023/04/20 02:21:56;;;;;;;6.57;3.37;;;;;;;;;;5029726;28;20644;-73
2023/04/20 02:24:21;;;;;;;8.10;3.47;;;;;;;;;;5030154;28;20300;-73
2023/04/20 02:26:47;;;;;;;5.67;3.27;;;;;;;;;;5033574;28;20260;-72
2023/04/20 02:29:12;;;;;;;5.55;3.45;;;;;;;;;;5032052;28;20335;-73
2023/04/20 02:31:37;;;;;;;8.77;3.83;;;;;;;;;;5032709;28;20030;-73
2023/04/20 02:34:04;;;;;;;8.90;4.00;;;;;;;;;;5032149;28;20279;-72
2023/04/20 02:36:30;;;;;;;8.77;3.45;;;;;;;;;;5031177;28;20268;-73
2023/04/20 02:38:55;;;;;;;7.82;3.67;;;;;;;;;;5032580;28;20013;-73
2023/04/20 02:41:20;;;;;;;13.27;3.75;;;;;;;;;;5035889;28;20046;-72
2023/04/20 02:43:45;;;;;;;17.20;4.00;;;;;;;;;;5032419;28;20021;-73
2023/04/20 02:46:11;;;;;;;9.10;3.97;;;;;;;;;;5035181;28;20363;-72
2023/04/20 02:48:36;;;;;;;9.52;4.82;;;;;;;;;;5034377;28;20267;-73
2023/04/20 02:51:01;;;;;;;10.40;3.87;;;;;;;;;;5030277;28;20033;-73
2023/04/20 02:53:26;;;;;;;6.93;3.55;;;;;;;;;;5032367;28;20272;-73
2023/04/20 02:55:51;;;;;;;10.07;3.70;;;;;;;;;;5025783;28;20390;-72
2023/04/20 02:58:16;;;;;;;10.83;4.23;;;;;;;;;;5031222;28;20294;-72
2023/04/20 03:00:42;;;;;;;9.97;3.93;;;;;;;;;;5033700;28;20339;-73
2023/04/20 03:03:07;;;;;;;7.57;3.60;;;;;;;;;;5036013;28;20314;-72
2023/04/20 03:05:32;;;;;;;10.07;3.80;;;;;;;;;;5031342;28;20288;-72
2023/04/20 03:07:57;;;;;;;8.10;3.35;;;;;;;;;;5031707;28;20342;-72
2023/04/20 03:10:22;;;;;;;6.03;3.10;;;;;;;;;;5033255;28;20033;-72
2023/04/20 03:12:47;;;;;;;12.03;3.20;;;;;;;;;;5032091;28;20276;-72
2023/04/20 03:15:14;;;;;;;6.20;3.37;;;;;;;;;;5031611;28;20360;-72
2023/04/20 03:17:39;;;;;;;8.63;3.42;;;;;;;;;;5034075;28;20276;-72
2023/04/20 03:20:06;;;;;;;5.47;3.00;;;;;;;;;;5033122;28;20418;-73
2023/04/20 03:22:31;;;;;;;7.68;3.45;;;;;;;;;;5030767;28;20327;-73
2023/04/20 03:24:56;;;;;;;12.80;3.90;;;;;;;;;;5032362;28;20507;-73
2023/04/20 03:27:21;;;;;;;10.77;3.47;;;;;;;;;;5032660;28;20283;-72
2023/04/20 03:29:47;;;;;;;9.33;3.23;;;;;;;;;;5031634;28;20033;-72
2023/04/20 03:32:12;;;;;;;7.68;3.25;;;;;;;;;;5028842;28;20757;-72
2023/04/20 03:34:38;;;;;;;7.38;4.00;;;;;;;;;;5030835;28;20471;-72
2023/04/20 03:37:03;;;;;;;8.80;3.37;;;;;;;;;;5030572;28;20033;-72
2023/04/20 03:39:28;;;;;;;8.55;3.15;;;;;;;;;;5031702;28;20355;-73
2023/04/20 03:41:53;;;;;;;10.55;3.90;;;;;;;;;;5034507;28;20028;-73
2023/04/20 03:44:18;;;;;;;7.07;3.00;;;;;;;;;;5031481;28;20050;-73
2023/04/20 03:46:44;;;;;;;9.27;3.70;;;;;;;;;;5027309;28;20280;-72
2023/04/20 03:49:09;;;;;;;6.78;3.03;;;;;;;;;;5029991;28;20303;-72
2023/04/20 03:51:34;;;;;;;5.95;3.28;;;;;;;;;;5031449;28;20029;-72
2023/04/20 03:53:59;;;;;;;13.13;3.70;;;;;;;;;;5031584;28;20021;-72
2023/04/20 03:56:26;;;;;;;8.52;3.30;;;;;;;;;;5030064;28;20029;-72
2023/04/20 03:58:51;;;;;;;11.65;3.42;;;;;;;;;;5031424;28;20017;-72
2023/04/20 04:01:16;;;;;;;7.65;3.70;;;;;;;;;;5028450;28;20029;-72
2023/04/20 04:03:41;;;;;;;16.85;2.83;;;;;;;;;;5030591;28;20033;-72
2023/04/20 04:06:08;;;;;;;6.97;3.83;;;;;;;;;;5029003;28;20025;-72
2023/04/20 04:08:33;;;;;;;11.38;3.90;;;;;;;;;;5031043;28;20029;-73
2023/04/20 04:10:58;;;;;;;6.97;3.93;;;;;;;;;;5027986;28;20166;-72
2023/04/20 04:13:24;;;;;;;8.10;3.80;;;;;;;;;;5030631;28;20256;-72
2023/04/20 04:15:49;;;;;;;12.73;4.27;;;;;;;;;;5029904;28;20395;-73
2023/04/20 04:18:14;;;;;;;19.02;5.43;;;;;;;;;;5029411;28;20358;-72
2023/04/20 04:20:39;;;;;;;20.80;4.03;;;;;;;;;;5029200;28;20034;-72
2023/04/20 04:23:05;;;;;;;13.97;4.43;;;;;;;;;;5030703;28;20298;-72
2023/04/20 04:25:30;;;;;;;9.95;4.10;;;;;;;;;;5028838;28;20268;-72
2023/04/20 04:27:56;;;;;;;9.02;3.60;;;;;;;;;;5030504;28;20018;-72
2023/04/20 04:30:22;;;;;;;13.52;6.53;;;;;;;;;;5029898;28;20017;-72
2023/04/20 04:32:48;;;;;;;10.00;4.47;;;;;;;;;;5030770;28;20010;-72
2023/04/20 04:35:14;;;;;;;9.90;4.25;;;;;;;;;;5029921;28;20070;-73
2023/04/20 04:37:39;;;;;;;11.43;4.35;;;;;;;;;;5030739;28;20021;-72
2023/04/20 04:40:07;;;;;;;7.05;3.30;;;;;;;;;;5025420;28;20025;-72
2023/04/20 04:42:33;;;;;;;7.85;3.60;;;;;;;;;;5030929;28;20025;-72
2023/04/20 04:45:00;;;;;;;7.68;3.92;;;;;;;;;;5030112;28;20520;-72
2023/04/20 04:47:28;;;;;;;12.57;4.10;;;;;;;;;;5030600;28;20031;-72
2023/04/20 04:49:53;;;;;;;7.03;4.05;;;;;;;;;;5029150;28;20021;-72
2023/04/20 04:52:18;;;;;;;9.75;4.00;;;;;;;;;;5029117;28;20026;-72
2023/04/20 04:54:44;;;;;;;9.27;3.58;;;;;;;;;;5027472;28;20071;-72
2023/04/20 04:57:09;;;;;;;12.27;4.22;;;;;;;;;;5029556;28;20017;-72
2023/04/20 04:59:34;;;;;;;5.75;3.25;;;;;;;;;;5033641;28;20125;-72
2023/04/20 05:02:00;;;;;;;12.02;4.50;;;;;;;;;;5032568;28;20036;-72
2023/04/20 05:04:25;;;;;;;7.25;4.25;;;;;;;;;;5030740;28;20021;-72
2023/04/20 05:06:50;;;;;;;11.63;3.75;;;;;;;;;;5029539;28;20017;-72
2023/04/20 05:09:15;;;;;;;9.37;4.57;;;;;;;;;;5028017;28;20020;-72
2023/04/20 05:11:40;;;;;;;12.70;4.33;;;;;;;;;;5033971;28;20283;-72
2023/04/20 05:14:05;;;;;;;9.00;4.43;;;;;;;;;;5030034;28;20276;-73
2023/04/20 05:16:31;;;;;;;9.73;4.27;;;;;;;;;;5029914;28;20371;-72
2023/04/20 05:18:56;;;;;;;20.13;4.85;;;;;;;;;;5030886;28;20271;-73
2023/04/20 05:21:21;;;;;;;16.92;4.95;;;;;;;;;;5034451;28;20025;-72
2023/04/20 05:23:46;;;;;;;10.18;4.63;;;;;;;;;;5031113;28;20030;-72
2023/04/20 05:26:12;;;;;;;10.73;4.57;;;;;;;;;;5024996;28;20018;-72
2023/04/20 05:28:37;;;;;;;15.98;4.45;;;;;;;;;;5028847;28;20276;-72
2023/04/20 05:31:02;;;;;;;9.93;4.50;;;;;;;;;;5025208;28;20026;-72
2023/04/20 05:33:27;;;;;;;14.10;4.68;;;;;;;;;;5027130;28;20288;-73
2023/04/20 05:35:56;;;;;;;9.10;4.80;;;;;;;;;;5027013;28;20087;-72
2023/04/20 05:38:21;;;;;;;9.55;4.30;;;;;;;;;;5025344;28;20053;-72
2023/04/20 05:40:46;;;;;;;9.07;4.85;;;;;;;;;;5025580;28;20034;-72
2023/04/20 05:43:11;;;;;;;16.00;5.17;;;;;;;;;;5027908;28;20047;-72
2023/04/20 05:45:37;;;;;;;10.43;5.28;;;;;;;;;;5026593;28;20284;-72
2023/04/20 05:48:02;;;;;;;10.63;4.80;;;;;;;;;;5028064;28;20025;-72
2023/04/20 05:50:27;;;;;;;12.18;5.85;;;;;;;;;;5025611;28;20798;-72
2023/04/20 05:52:52;;;;;;;12.35;4.95;;;;;;;;;;5023742;28;20030;-72
2023/04/20 05:55:18;;;;;;;12.77;4.63;;;;;;;;;;5027018;28;20071;-72
2023/04/20 05:57:43;;;;;;;17.40;4.90;;;;;;;;;;5022319;28;20022;-72
2023/04/20 06:00:12;;;;;;;9.98;4.70;;;;;;;;;;5023159;28;20017;-73
2023/04/20 06:02:38;;;;;;;11.13;5.45;;;;;;;;;;5026492;28;20614;-72
2023/04/20 06:05:03;;;;;;;9.48;4.90;;;;;;;;;;5021285;28;20139;-72
2023/04/20 06:07:28;;;;;;;9.30;5.57;;;;;;;;;;5023007;28;20433;-72
2023/04/20 06:09:53;;;;;;;10.98;5.47;;;;;;;;;;5031094;28;20025;-72
2023/04/20 06:12:18;;;;;;;12.93;4.80;;;;;;;;;;5030539;28;20036;-73
2023/04/20 06:14:44;;;;;;;12.60;4.60;;;;;;;;;;5033236;28;20283;-73
2023/04/20 06:17:09;;;;;;;10.23;4.90;;;;;;;;;;5032963;28;20033;-72
2023/04/20 06:19:34;;;;;;;11.07;4.90;;;;;;;;;;5030215;28;20037;-72
2023/04/20 06:21:59;;;;;;;11.63;4.93;;;;;;;;;;5030954;28;20021;-72
2023/04/20 06:24:26;;;;;;;13.50;5.17;;;;;;;;;;5031610;28;20076;-72
2023/04/20 06:26:51;;;;;;;11.18;6.40;;;;;;;;;;5030029;28;20282;-72
2023/04/20 06:29:17;;;;;;;10.83;5.97;;;;;;;;;;5031689;28;20025;-73
2023/04/20 06:31:42;;;;;;;13.52;5.65;;;;;;;;;;5030097;28;20362;-72
2023/04/20 06:34:07;;;;;;;14.80;5.73;;;;;;;;;;5027977;28;20036;-73
2023/04/20 06:36:32;;;;;;;13.25;6.63;;;;;;;;;;5030117;28;20276;-73
2023/04/20 06:38:58;;;;;;;11.63;6.13;;;;;;;;;;5034909;28;20079;-73
2023/04/20 06:41:23;;;;;;;10.98;5.97;;;;;;;;;;5027907;28;20446;-73
2023/04/20 06:43:48;;;;;;;14.67;6.37;;;;;;;;;;5027899;28;20493;-74
2023/04/20 06:46:13;;;;;;;19.23;6.77;;;;;;;;;;5031510;28;20260;-73
2023/04/20 06:48:38;;;;;;;12.25;6.38;;;;;;;;;;5033099;28;20268;-72
2023/04/20 06:51:04;;;;;;;13.00;6.70;;;;;;;;;;5030860;28;20112;-73
2023/04/20 06:53:29;;;;;;;14.93;7.07;;;;;;;;;;5032427;28;20276;-73
2023/04/20 06:55:54;;;;;;;12.02;6.05;;;;;;;;;;5033756;28;20025;-73
2023/04/20 06:58:19;;;;;;;16.17;6.78;;;;;;;;;;5030335;28;20112;-73
2023/04/20 07:00:46;;;;;;;10.00;5.28;;;;;;;;;;5026174;28;20104;-74
2023/04/20 07:03:11;;;;;;;10.23;4.90;;;;;;;;;;5031411;28;20028;-73
2023/04/20 07:05:36;;;;;;;8.33;4.67;;;;;;;;;;5029222;28;20382;-73
2023/04/20 07:08:01;;;;;;;6.45;4.00;;;;;;;;;;5029153;28;20260;-72
2023/04/20 07:10:27;;;;;;;8.60;4.67;;;;;;;;;;5028336;28;20033;-73
2023/04/20 07:12:52;;;;;;;8.82;4.65;;;;;;;;;;5029722;28;20264;-73
2023/04/20 07:15:17;;;;;;;10.50;4.17;;;;;;;;;;5029179;28;20022;-73
2023/04/20 07:17:42;;;;;;;7.07;4.07;;;;;;;;;;5028051;28;20793;-73
2023/04/20 07:20:08;;;;;;;7.30;4.10;;;;;;;;;;5027007;28;20092;-74
2023/04/20 07:22:33;;;;;;;9.68;3.90;;;;;;;;;;5027150;28;20318;-73
2023/04/20 07:25:03;;;;;;;13.88;3.83;;;;;;;;;;5032082;28;20025;-74
2023/04/20 07:27:29;;;;;;;5.70;3.92;;;;;;;;;;5031178;28;20425;-74
2023/04/20 07:29:55;;;;;;;5.47;3.78;;;;;;;;;;5028706;28;20033;-73
2023/04/20 07:32:20;;;;;;;4.43;3.05;;;;;;;;;;5034706;28;20536;-73
2023/04/20 07:34:45;;;;;;;6.20;3.65;;;;;;;;;;5029315;28;20029;-74
2023/04/20 07:37:11;;;;;;;4.67;2.90;;;;;;;;;;5028623;28;20031;-72
2023/04/20 07:39:36;;;;;;;4.97;3.50;;;;;;;;;;5030231;28;20275;-72
2023/04/20 07:42:03;;;;;;;4.73;3.20;;;;;;;;;;5031427;28;20544;-72
2023/04/20 07:44:28;;;;;;;4.97;3.47;;;;;;;;;;5030893;28;20385;-73
2023/04/20 07:46:54;;;;;;;4.27;2.97;;;;;;;;;;5031228;28;20080;-73
2023/04/20 07:49:19;;;;;;;5.65;3.65;;;;;;;;;;5028602;28;20268;-72
2023/04/20 07:51:44;;;;;;;6.25;3.60;;;;;;;;;;5030186;28;20039;-72
2023/04/20 07:54:10;;;;;;;4.53;3.20;;;;;;;;;;5030417;28;20106;-72
2023/04/20 07:56:35;;;;;;;5.85;3.55;;;;;;;;;;5031572;28;20129;-71
2023/04/20 07:59:00;;;;;;;3.88;2.60;;;;;;;;;;5030856;28;20071;-73
2023/04/20 08:01:26;;;;;;;4.97;3.00;;;;;;;;;;5031583;28;20049;-74
2023/04/20 08:03:53;;;;;;;4.22;2.75;;;;;;;;;;5030148;28;20029;-73
2023/04/20 08:06:18;;;;;;;5.95;2.60;;;;;;;;;;5027631;28;20029;-73
2023/04/20 08:08:44;;;;;;;5.03;3.10;;;;;;;;;;5033192;28;20017;-73
2023/04/20 08:11:09;;;;;;;4.88;3.20;;;;;;;;;;5030734;28;20077;-73
2023/04/20 08:13:35;;;;;;;5.53;2.70;;;;;;;;;;5029619;28;20026;-74
2023/04/20 08:16:00;;;;;;;4.72;2.83;;;;;;;;;;5028994;28;20568;-73
2023/04/20 08:18:25;;;;;;;3.90;2.70;;;;;;;;;;5030528;28;20041;-74
2023/04/20 08:20:51;;;;;;;6.67;3.23;;;;;;;;;;5032441;28;20075;-74
2023/04/20 08:23:16;;;;;;;3.45;2.42;;;;;;;;;;5029893;28;20729;-74
2023/04/20 08:25:41;;;;;;;6.70;2.90;;;;;;;;;;5029585;28;20087;-73
2023/04/20 08:28:06;;;;;;;4.30;3.00;;;;;;;;;;5032687;28;21860;-73
2023/04/20 08:30:31;;;;;;;5.10;3.25;;;;;;;;;;5029641;28;20021;-74
2023/04/20 08:32:57;;;;;;;7.45;2.67;;;;;;;;;;5028287;28;20378;-73
2023/04/20 08:35:22;;;;;;;4.75;2.90;;;;;;;;;;5027657;28;21790;-73
2023/04/20 08:37:47;;;;;;;4.53;2.53;;;;;;;;;;5031164;28;20017;-73
2023/04/20 08:40:13;;;;;;;5.60;3.17;;;;;;;;;;5028950;28;20106;-73
2023/04/20 08:42:38;;;;;;;5.15;3.03;;;;;;;;;;5028266;28;20013;-74
2023/04/20 08:45:03;;;;;;;6.05;3.10;;;;;;;;;;5028527;28;20029;-73
2023/04/20 08:47:30;;;;;;;7.32;2.85;;;;;;;;;;5027892;28;20022;-73
2023/04/20 08:49:55;;;;;;;8.77;3.15;;;;;;;;;;5027373;28;20035;-73
2023/04/20 08:52:20;;;;;;;5.30;3.00;;;;;;;;;;5030108;28;20025;-74
2023/04/20 08:54:45;;;;;;;4.97;3.38;;;;;;;;;;5032516;28;20424;-73
2023/04/20 08:57:11;;;;;;;5.07;3.60;;;;;;;;;;5028515;28;20039;-72
2023/04/20 08:59:36;;;;;;;5.40;3.63;;;;;;;;;;5027740;28;20780;-72
2023/04/20 09:02:10;;;;;;;10.63;3.42;;;;;;;;;;5028642;28;20276;-72
2023/04/20 09:04:35;;;;;;;12.60;3.90;;;;;;;;;;5030621;28;20032;-72
2023/04/20 09:07:01;;;;;;;8.27;2.97;;;;;;;;;;5029083;28;20089;-72
2023/04/20 09:09:26;;;;;;;6.22;2.95;;;;;;;;;;5030396;28;20020;-72
2023/04/20 09:12:05;;;;;;;3.50;1.90;;;;;;;;;;5030694;28;20032;-71
2023/04/20 09:14:41;;;;;;;5.50;3.25;;;;;;;;;;5028872;28;20334;-72
2023/04/20 09:17:06;;;;;;;5.13;2.97;;;;;;;;;;5027952;28;20095;-71
2023/04/20 09:19:31;;;;;;;3.25;2.40;;;;;;;;;;5031184;28;20030;-72
2023/04/20 09:21:57;;;;;;;7.13;2.50;;;;;;;;;;5028854;28;20033;-71
2023/04/20 09:24:28;;;;;;;4.60;2.30;;;;;;;;;;5028660;28;20284;-72
2023/04/20 09:26:54;;;;;;;5.35;2.08;;;;;;;;;;5028641;28;20060;-72
2023/04/20 09:29:20;;;;;;;4.53;2.28;;;;;;;;;;5032563;28;20053;-72
2023/04/20 09:31:46;;;;;;;4.25;2.13;;;;;;;;;;5026141;28;20087;-72
2023/04/20 09:34:12;;;;;;;3.95;2.55;;;;;;;;;;5026527;28;20059;-73
2023/04/20 09:36:38;;;;;;;3.67;2.40;;;;;;;;;;5024839;28;20021;-72
2023/04/20 09:39:08;;;;;;;3.35;2.15;;;;;;;;;;5025241;28;20033;-73
2023/04/20 09:41:33;;;;;;;3.53;2.10;;;;;;;;;;5024366;28;20029;-72
2023/04/20 09:43:59;;;;;;;7.22;1.98;;;;;;;;;;5028035;28;20030;-72
2023/04/20 09:46:27;;;;;;;2.28;1.63;;;;;;;;;;5030136;28;20394;-72
2023/04/20 09:48:52;;;;;;;3.10;1.67;;;;;;;;;;5032691;28;20060;-72
2023/04/20 09:51:18;;;;;;;4.70;1.80;;;;;;;;;;5030816;28;20053;-72
2023/04/20 09:53:44;;;;;;;2.70;1.65;;;;;;;;;;5030967;28;20092;-72
2023/04/20 09:56:10;;;;;;;2.05;1.02;;;;;;;;;;5031444;28;20037;-72
2023/04/20 09:58:36;;;;;;;1.88;1.10;;;;;;;;;;5030092;28;20020;-72
2023/04/20 10:01:02;;;;;;;1.88;0.90;;;;;;;;;;5028189;28;20446;-72
2023/04/20 10:03:27;;;;;;;1.98;0.80;;;;;;;;;;5027042;28;20027;-74
2023/04/20 10:05:54;;;;;;;1.42;0.90;;;;;;;;;;5030993;28;20037;-74
2023/04/20 10:08:19;;;;;;;1.27;0.73;;;;;;;;;;5031672;28;20100;-71
2023/04/20 10:10:46;;;;;;;2.42;0.60;;;;;;;;;;5036309;28;20096;-72
2023/04/20 10:13:11;;;;;;;1.00;0.70;;;;;;;;;;5031414;28;20026;-72
2023/04/20 10:15:40;;;;;;;0.68;0.60;;;;;;;;;;5030001;28;20048;-72
2023/04/20 10:18:16;;;;;;;0.77;0.50;;;;;;;;;;5036586;28;20025;-72
2023/04/20 10:20:41;;;;;;;0.82;0.40;;;;;;;;;;5029560;28;20651;-71
2023/04/20 10:23:13;;;;;;;0.30;0.30;;;;;;;;;;5024996;28;20029;-72
2023/04/20 10:25:38;;;;;;;0.93;0.50;;;;;;;;;;5030788;28;20640;-71
2023/04/20 10:28:07;;;;;;;1.08;0.50;;;;;;;;;;5031584;28;20082;-72
2023/04/20 10:30:32;;;;;;;1.45;0.60;;;;;;;;;;5030890;28;20017;-72
2023/04/20 10:33:04;;;;;;;0.77;0.47;;;;;;;;;;5034275;28;20021;-72
2023/04/20 10:35:39;;;;;;;0.52;0.40;;;;;;;;;;5029851;28;20022;-72
2023/04/20 10:38:04;;;;;;;0.65;0.50;;;;;;;;;;5032086;28;20045;-73
2023/04/20 10:40:30;;;;;;;1.50;0.63;;;;;;;;;;5030088;28;20505;-72
2023/04/20 10:42:55;;;;;;;0.60;0.50;;;;;;;;;;5032040;28;20376;-72
2023/04/20 10:45:20;;;;;;;0.83;0.40;;;;;;;;;;5027838;28;20311;-72
2023/04/20 10:47:46;;;;;;;0.82;0.40;;;;;;;;;;5030943;28;20268;-73
2023/04/20 10:50:13;;;;;;;0.35;0.30;;;;;;;;;;5030283;28;20108;-73
2023/04/20 10:52:39;;;;;;;0.45;0.25;;;;;;;;;;5031849;28;20017;-73
2023/04/20 10:55:07;;;;;;;1.10;0.30;;;;;;;;;;5030109;28;20148;-72
2023/04/20 10:57:32;;;;;;;0.30;0.30;;;;;;;;;;5031147;28;20025;-72
2023/04/20 10:59:58;;;;;;;0.20;0.20;;;;;;;;;;5027168;28;20030;-72
2023/04/20 11:02:23;;;;;;;1.85;0.35;;;;;;;;;;5029944;28;20425;-72
2023/04/20 11:04:48;;;;;;;0.10;0.10;;;;;;;;;;5028892;28;20429;-73
2023/04/20 11:07:13;;;;;;;0.20;0.20;;;;;;;;;;5032374;28;20079;-73
2023/04/20 11:09:39;;;;;;;0.22;0.20;;;;;;;;;;5029350;28;20039;-73
2023/04/20 11:12:05;;;;;;;1.35;0.30;;;;;;;;;;5031704;28;20049;-73
2023/04/20 11:14:31;;;;;;;0.38;0.32;;;;;;;;;;5030790;28;20477;-73
2023/04/20 11:16:57;;;;;;;0.60;0.28;;;;;;;;;;5035556;28;20429;-73
2023/04/20 11:19:23;;;;;;;0.25;0.20;;;;;;;;;;5029690;28;20049;-73
2023/04/20 11:21:49;;;;;;;0.40;0.20;;;;;;;;;;5035186;28;20021;-73
2023/04/20 11:24:18;;;;;;;0.45;0.20;;;;;;;;;;5030571;28;20018;-73
2023/04/20 11:26:44;;;;;;;0.55;0.30;;;;;;;;;;5029911;28;20021;-73
2023/04/20 11:29:09;;;;;;;0.40;0.38;;;;;;;;;;5026011;28;20504;-73
2023/04/20 11:31:35;;;;;;;0.68;0.20;;;;;;;;;;5029921;28;20088;-73
2023/04/20 11:34:00;;;;;;;3.40;0.28;;;;;;;;;;5029744;28;20025;-73
2023/04/20 11:36:28;;;;;;;0.43;0.30;;;;;;;;;;5026066;28;20100;-73
2023/04/20 11:38:54;;;;;;;0.20;0.20;;;;;;;;;;5031042;28;20021;-71
2023/04/20 11:41:20;;;;;;;0.50;0.40;;;;;;;;;;5025779;28;20081;-71
2023/04/20 11:43:45;;;;;;;0.80;0.50;;;;;;;;;;5031626;28;20026;-71
2023/04/20 11:46:19;;;;;;;1.83;0.85;;;;;;;;;;5029380;28;20025;-71
2023/04/20 11:48:45;;;;;;;3.20;1.33;;;;;;;;;;5026760;28;20021;-72
2023/04/20 11:51:10;;;;;;;1.77;1.25;;;;;;;;;;5029152;28;20021;-72
2023/04/20 11:53:36;;;;;;;2.78;1.60;;;;;;;;;;5032351;28;20020;-72
2023/04/20 11:56:02;;;;;;;8.32;2.97;;;;;;;;;;5027980;28;20128;-71
2023/04/20 11:58:27;;;;;;;6.65;2.97;;;;;;;;;;5026677;28;20018;-71
2023/04/20 12:00:52;;;;;;;4.53;2.53;;;;;;;;;;5027432;28;20033;-72
2023/04/20 12:03:17;;;;;;;4.47;2.53;;;;;;;;;;5029472;28;20831;-71
2023/04/20 12:05:43;;;;;;;3.90;1.90;;;;;;;;;;5024704;28;20371;-71
2023/04/20 12:08:08;;;;;;;3.55;1.98;;;;;;;;;;5026467;28;20650;-71
2023/04/20 12:10:33;;;;;;;1.27;1.05;;;;;;;;;;5027700;28;20386;-71
2023/04/20 12:13:00;;;;;;;3.58;2.28;;;;;;;;;;5027800;28;20061;-71
2023/04/20 12:15:25;;;;;;;2.83;1.42;;;;;;;;;;5027016;28;20036;-71
2023/04/20 12:17:50;;;;;;;1.63;0.53;;;;;;;;;;5028267;28;20021;-71
2023/04/20 12:20:15;;;;;;;3.17;1.85;;;;;;;;;;5022312;28;20298;-71
2023/04/20 12:22:40;;;;;;;2.30;1.52;;;;;;;;;;5016541;28;20025;-71
2023/04/20 12:25:06;;;;;;;4.43;2.20;;;;;;;;;;5016101;28;20445;-70
2023/04/20 12:27:31;;;;;;;4.90;2.35;;;;;;;;;;5039808;28;20272;-72
2023/04/20 12:29:56;;;;;;;3.37;2.30;;;;;;;;;;5025438;28;20111;-73
2023/04/20 12:32:21;;;;;;;6.27;2.63;;;;;;;;;;5022723;28;20279;-69
2023/04/20 12:34:47;;;;;;;3.53;1.70;;;;;;;;;;5030430;28;20268;-71
2023/04/20 12:37:13;;;;;;;9.38;3.40;;;;;;;;;;5022122;28;20286;-70
2023/04/20 12:39:38;;;;;;;4.82;3.20;;;;;;;;;;5031526;28;20025;-69
2023/04/20 12:42:04;;;;;;;2.08;0.88;;;;;;;;;;5027970;28;20040;-69
2023/04/20 12:44:29;;;;;;;6.90;2.10;;;;;;;;;;5030143;28;20033;-70
2023/04/20 12:46:54;;;;;;;3.17;2.03;;;;;;;;;;5029358;28;20264;-69
2023/04/20 12:49:20;;;;;;;3.07;1.87;;;;;;;;;;5029567;28;20105;-70
2023/04/20 12:51:45;;;;;;;10.35;3.45;;;;;;;;;;5028783;28;20283;-69
2023/04/20 12:54:10;;;;;;;3.57;2.37;;;;;;;;;;5029132;28;20037;-69
2023/04/20 12:56:36;;;;;;;9.00;3.25;;;;;;;;;;5027560;28;20819;-70
2023/04/20 12:59:01;;;;;;;5.72;3.08;;;;;;;;;;5028241;28;20017;-71
2023/04/20 13:01:26;;;;;;;7.50;3.80;;;;;;;;;;5026095;28;20049;-72
2023/04/20 13:03:51;;;;;;;6.18;3.90;;;;;;;;;;5028976;28;21188;-69
2023/04/20 13:06:16;;;;;;;6.38;3.67;;;;;;;;;;5028664;28;20380;-72
2023/04/20 13:08:41;;;;;;;8.45;4.20;;;;;;;;;;5030465;28;20492;-69
2023/04/20 13:11:10;;;;;;;7.27;4.17;;;;;;;;;;5025305;28;20030;-70
2023/04/20 13:13:36;;;;;;;7.13;2.80;;;;;;;;;;5030705;28;20287;-69
2023/04/20 13:16:01;;;;;;;12.57;4.60;;;;;;;;;;5027948;28;20029;-71
2023/04/20 13:18:26;;;;;;;7.80;4.13;;;;;;;;;;5031517;28;20272;-70
2023/04/20 13:20:51;;;;;;;5.13;2.65;;;;;;;;;;5027858;28;21900;-70
2023/04/20 13:23:17;;;;;;;3.13;2.13;;;;;;;;;;5032131;28;20478;-69
2023/04/20 13:25:42;;;;;;;8.80;2.33;;;;;;;;;;5024038;28;20112;-70
2023/04/20 13:28:07;;;;;;;5.77;3.40;;;;;;;;;;5024505;28;20060;-70
2023/04/20 13:30:32;;;;;;;6.93;3.20;;;;;;;;;;5022120;28;20268;-73
2023/04/20 13:32:58;;;;;;;4.93;2.90;;;;;;;;;;5025914;28;20401;-70
2023/04/20 13:35:23;;;;;;;9.40;3.00;;;;;;;;;;5024893;28;20021;-71
2023/04/20 13:37:48;;;;;;;5.95;3.15;;;;;;;;;;5027729;28;20355;-69
2023/04/20 13:40:13;;;;;;;6.30;2.90;;;;;;;;;;5026187;28;20025;-69
2023/04/20 13:42:38;;;;;;;4.93;3.10;;;;;;;;;;5027378;28;20018;-71
2023/04/20 13:45:04;;;;;;;6.63;3.28;;;;;;;;;;5028670;28;20119;-69
2023/04/20 13:47:30;;;;;;;10.00;4.18;;;;;;;;;;5029620;28;20022;-71
2023/04/20 13:49:55;;;;;;;5.75;1.85;;;;;;;;;;5027496;28;20083;-70
2023/04/20 13:52:21;;;;;;;6.72;4.00;;;;;;;;;;5030131;28;20022;-70
2023/04/20 13:54:46;;;;;;;4.90;2.95;;;;;;;;;;5027719;28;20021;-70
2023/04/20 13:57:11;;;;;;;5.27;3.03;;;;;;;;;;5022584;28;20145;-70
2023/04/20 13:59:36;;;;;;;12.83;4.87;;;;;;;;;;5026608;28;20276;-70
2023/04/20 14:02:01;;;;;;;9.45;3.83;;;;;;;;;;5028774;28;20275;-70
2023/04/20 14:04:27;;;;;;;5.55;3.65;;;;;;;;;;5028225;28;20446;-69
2023/04/20 14:06:52;;;;;;;6.60;3.23;;;;;;;;;;5027669;28;20116;-73
2023/04/20 14:09:17;;;;;;;6.73;3.40;;;;;;;;;;5028264;28;20025;-70
2023/04/20 14:11:42;;;;;;;6.10;3.40;;;;;;;;;;5026359;28;20354;-71
2023/04/20 14:14:08;;;;;;;6.43;3.03;;;;;;;;;;5028631;28;20898;-70
2023/04/20 14:16:41;;;;;;;4.47;2.88;;;;;;;;;;5025874;28;20029;-70
2023/04/20 14:19:06;;;;;;;5.78;2.90;;;;;;;;;;5025250;28;20029;-70
2023/04/20 14:21:31;;;;;;;5.07;3.20;;;;;;;;;;5023743;28;20021;-69
2023/04/20 14:23:56;;;;;;;5.75;3.35;;;;;;;;;;5023599;28;20376;-72
2023/04/20 14:26:22;;;;;;;5.63;3.63;;;;;;;;;;5030811;28;20026;-72
2023/04/20 14:28:48;;;;;;;6.27;3.57;;;;;;;;;;5024117;28;20375;-70
2023/04/20 14:31:13;;;;;;;6.10;3.58;;;;;;;;;;5025264;28;20280;-70